Terminal Aerodrome Forecast
Issued by NWS

Home | Current Version | Previous Version | Text Only | Print | Product List | Glossary On
Versions: 1 2 3 4 5 6 7 8 9 10 11 12 13 14 15 16 17 18 19 20 21 22 23
000
FTUS43 KBIS 221100
TAFJMS
TAF
KJMS 221140Z 2212/2312 09005KT 2SM BR BKN003 OVC010
      TEMPO 2212/2216 1/2SM FZFG OVC001
     FM221600 04008KT 1SM BR OVC005
     FM222000 01014KT 1SM -SN BR OVC008
     FM230000 36018KT 3/4SM -SN OVC008=

USA.gov is the U.S. government's official web portal to all federal, state and local government web resources and services.